Time;durP1;ratioP1;P1;durP2;ratioP2;P2;SDS_P1;SDS_P2;PMS_P1;PMS_P2;Temp;Humidity;BMP_temperature;BMP_pressure;BME280_temperature;BME280_humidity;BME280_pressure;Samples;Min_cycle;Max_cycle;Signal;HPM_P1;HPM_P2
2022/12/22 03:27:30;;;;;;;91.32;29.00;;;;;;;1.92;100.00;99774.16;1652025;86;25314;-55
2022/12/22 03:29:57;;;;;;;95.57;30.70;;;;;;;1.92;100.00;99775.48;1652088;86;25317;-55
2022/12/22 03:32:24;;;;;;;100.02;31.70;;;;;;;1.94;100.00;99777.90;1652028;86;25636;-51
2022/12/22 03:34:51;;;;;;;92.78;29.48;;;;;;;1.95;100.00;99778.18;1652098;86;25514;-52
2022/12/22 03:37:18;;;;;;;103.58;31.35;;;;;;;1.95;100.00;99780.30;1652126;86;27253;-51
2022/12/22 03:39:45;;;;;;;100.78;30.40;;;;;;;1.96;100.00;99784.59;1651980;86;25882;-54
2022/12/22 03:47:46;;;;;;;89.17;29.10;;;;;;;1.99;100.00;99780.06;1652115;86;25421;-52
2022/12/22 03:50:14;;;;;;;93.78;30.30;;;;;;;2.01;100.00;99774.44;1652103;86;27202;-54
2022/12/22 03:52:41;;;;;;;98.80;32.08;;;;;;;2.01;100.00;99771.77;1666817;85;25370;-52
2022/12/22 03:55:08;;;;;;;85.70;29.25;;;;;;;2.02;100.00;99768.05;1652098;86;25527;-53
2022/12/22 03:57:36;;;;;;;83.17;28.77;;;;;;;2.03;100.00;99766.45;1652076;86;26328;-53
2022/12/22 04:00:06;;;;;;;87.02;28.92;;;;;;;2.03;100.00;99771.78;1652141;86;25485;-53
2022/12/22 04:02:33;;;;;;;84.87;30.15;;;;;;;2.04;100.00;99776.58;1652098;86;27270;-56
2022/12/22 04:05:00;;;;;;;78.87;28.52;;;;;;;2.05;100.00;99783.53;1652027;86;25643;-56
2022/12/22 04:07:27;;;;;;;88.40;30.45;;;;;;;2.06;100.00;99779.81;1652071;86;25534;-53
2022/12/22 04:12:56;;;;;;;81.47;30.27;;;;;;;2.09;100.00;99767.25;1624581;88;25485;-55
2022/12/22 04:15:28;;;;;;;93.90;31.75;;;;;;;2.09;100.00;99763.25;1624556;87;29338;-54
2022/12/22 04:17:59;;;;;;;88.33;29.67;;;;;;;2.11;100.00;99765.66;1624491;88;25332;-56
2022/12/22 04:20:27;;;;;;;91.25;30.02;;;;;;;2.11;100.00;99765.66;1624571;87;25491;-53
2022/12/22 04:22:57;;;;;;;89.60;30.27;;;;;;;2.11;100.00;99765.66;1624626;87;25620;-52
2022/12/22 04:25:25;;;;;;;;;;;;;;;2.11;100.00;99760.31;1626962;88;25525;-51
2022/12/22 04:27:53;;;;;;;78.97;30.37;;;;;;;2.13;100.00;99756.84;1615016;88;27038;-54
2022/12/22 04:30:20;;;;;;;91.90;30.68;;;;;;;2.11;100.00;99754.47;1624553;88;25882;-53
2022/12/22 04:32:47;;;;;;;91.30;29.95;;;;;;;2.12;100.00;99753.38;1624636;87;25517;-52
2022/12/22 04:35:14;;;;;;;90.03;32.08;;;;;;;2.11;100.00;99755.80;1624599;87;25607;-56
2022/12/22 04:37:41;;;;;;;89.70;31.90;;;;;;;2.10;100.00;99740.05;1615270;88;25538;-53
2022/12/22 04:40:10;;;;;;;87.62;30.37;;;;;;;2.11;100.00;99740.30;1624721;88;27252;-53
2022/12/22 04:42:37;;;;;;;62.62;23.07;;;;;;;2.12;100.00;99737.91;1623217;88;25511;-51
2022/12/22 04:45:07;;;;;;;84.83;31.25;;;;;;;2.12;100.00;99738.70;1624629;87;25389;-52
2022/12/22 04:47:35;;;;;;;93.33;32.83;;;;;;;2.13;100.00;99738.16;1623168;88;25612;-55
2022/12/22 04:50:04;;;;;;;97.92;33.13;;;;;;;2.12;100.00;99734.70;1624687;87;25414;-53
2022/12/22 04:52:31;;;;;;;91.97;31.30;;;;;;;2.12;100.00;99720.57;1624853;88;27286;-54
2022/12/22 04:54:58;;;;;;;81.80;30.55;;;;;;;2.11;100.00;99722.96;1624600;88;25374;-54
2022/12/22 04:57:25;;;;;;;81.70;31.62;;;;;;;2.10;100.00;99723.50;1624639;88;25419;-52
2022/12/22 04:59:54;;;;;;;83.33;31.65;;;;;;;2.12;100.00;99729.91;1624564;88;25583;-51
2022/12/22 05:02:21;;;;;;;80.97;32.35;;;;;;;2.13;100.00;99726.98;1624870;88;25461;-56
2022/12/22 05:04:49;;;;;;;85.45;31.57;;;;;;;2.16;100.00;99735.80;1615158;88;27364;-52
2022/12/22 05:07:19;;;;;;;75.85;31.00;;;;;;;2.17;100.00;99737.92;1624531;88;25562;-52
2022/12/22 05:09:46;;;;;;;83.03;33.00;;;;;;;2.19;100.00;99751.79;1624573;85;25511;-52
2022/12/22 05:15:01;;;;;;;58.63;23.10;;;;;;;2.20;100.00;99741.39;1624655;88;25475;-54
2022/12/22 05:17:28;;;;;;;40.25;17.37;;;;;;;2.21;100.00;99739.80;1624725;87;27263;-51
2022/12/22 05:19:55;;;;;;;62.55;24.85;;;;;;;2.20;100.00;99734.18;1615182;88;25396;-54
2022/12/22 05:22:22;;;;;;;64.35;23.75;;;;;;;2.21;100.00;99729.64;1624629;88;25512;-54
2022/12/22 05:24:49;;;;;;;55.58;23.73;;;;;;;2.20;100.00;99729.39;1624543;88;25691;-53
2022/12/22 05:27:16;;;;;;;86.22;31.40;;;;;;;2.20;100.00;99726.72;1624671;87;25457;-53
2022/12/22 05:29:44;;;;;;;87.05;32.48;;;;;;;2.21;100.00;99731.80;1624563;88;27251;-53
2022/12/22 05:32:11;;;;;;;85.75;33.08;;;;;;;2.21;100.00;99722.96;1624550;87;25803;-56
2022/12/22 05:34:38;;;;;;;83.00;31.75;;;;;;;2.20;100.00;99723.51;1624597;87;25503;-53
2022/12/22 05:37:05;;;;;;;77.82;31.90;;;;;;;2.20;100.00;99717.38;1624633;87;25657;-54
2022/12/22 05:39:32;;;;;;;86.28;35.58;;;;;;;2.19;100.00;99714.44;1624685;87;25485;-54
2022/12/22 05:41:59;;;;;;;93.95;35.00;;;;;;;2.18;100.00;99721.64;1624580;87;27204;-54
2022/12/22 05:44:26;;;;;;;84.83;33.13;;;;;;;2.18;100.00;99720.31;1624517;88;25885;-53
2022/12/22 05:46:54;;;;;;;89.58;34.33;;;;;;;2.17;100.00;99721.37;1624690;88;25539;-51
2022/12/22 05:49:23;;;;;;;84.15;32.70;;;;;;;2.17;100.00;99725.37;1624653;88;26215;-54
2022/12/22 05:51:52;;;;;;;85.35;34.00;;;;;;;2.18;100.00;99724.31;1615263;88;25414;-56
2022/12/22 05:54:20;;;;;;;80.25;32.15;;;;;;;2.19;100.00;99724.56;1624717;87;27276;-52
2022/12/22 05:56:47;;;;;;;86.40;32.63;;;;;;;2.19;100.00;99721.89;1624529;88;25521;-51
2022/12/22 05:59:14;;;;;;;89.42;33.67;;;;;;;2.21;100.00;99728.30;1624554;88;25527;-54
2022/12/22 06:01:41;;;;;;;77.42;34.35;;;;;;;2.22;100.00;99733.92;1624576;88;25610;-54
2022/12/22 06:04:09;;;;;;;79.12;32.83;;;;;;;2.25;100.00;99741.39;1624587;88;25481;-52
2022/12/22 06:06:37;;;;;;;86.00;34.88;;;;;;;2.26;100.00;99742.19;1624567;88;27179;-52
2022/12/22 06:09:04;;;;;;;81.97;33.18;;;;;;;2.26;100.00;99740.31;1631344;85;25815;-53
2022/12/22 06:11:31;;;;;;;83.20;34.20;;;;;;;2.27;100.00;99741.92;1649591;87;25507;-55
2022/12/22 06:13:58;;;;;;;80.57;35.23;;;;;;;2.27;100.00;99740.59;1649528;87;25569;-54
2022/12/22 06:16:25;;;;;;;76.90;32.17;;;;;;;2.28;100.00;99743.50;1649580;87;25490;-51
2022/12/22 06:18:52;;;;;;;82.27;34.00;;;;;;;2.28;100.00;99742.17;1649547;87;27259;-50
2022/12/22 06:21:19;;;;;;;79.82;33.70;;;;;;;2.29;100.00;99743.78;1649438;87;27111;-50
2022/12/22 06:23:47;;;;;;;74.95;31.73;;;;;;;2.29;100.00;99744.33;1649558;87;25511;-51
2022/12/22 06:26:16;;;;;;;79.07;33.45;;;;;;;2.29;100.00;99745.66;1649540;87;25570;-58
2022/12/22 06:28:43;;;;;;;78.65;32.42;;;;;;;2.31;100.00;99755.53;1649490;87;26883;-51
2022/12/22 06:31:10;;;;;;;73.33;31.52;;;;;;;2.30;100.00;99755.25;1649522;87;27881;-52
2022/12/22 06:33:37;;;;;;;74.37;31.48;;;;;;;2.32;100.00;99758.48;1649421;87;25516;-53
2022/12/22 06:36:07;;;;;;;78.05;33.42;;;;;;;2.32;100.00;99760.61;1649532;87;25329;-52
2022/12/22 06:38:35;;;;;;;79.17;34.27;;;;;;;2.33;100.00;99762.73;1641560;87;25672;-51
2022/12/22 06:41:05;;;;;;;80.10;33.23;;;;;;;2.33;100.00;99754.72;1649763;87;25612;-52
2022/12/22 06:43:33;;;;;;;72.62;32.67;;;;;;;2.32;100.00;99759.81;1649527;87;27208;-52
2022/12/22 06:46:00;;;;;;;73.92;32.45;;;;;;;2.32;100.00;99759.81;1649458;87;25494;-52
2022/12/22 06:48:27;;;;;;;74.53;34.67;;;;;;;2.32;100.00;99755.81;1649482;87;25505;-53
2022/12/22 06:50:59;;;;;;;76.25;32.58;;;;;;;2.32;100.00;99760.61;1649438;87;27710;-56
2022/12/22 06:53:26;;;;;;;70.83;32.45;;;;;;;2.31;100.00;99758.20;1649515;87;25506;-54
2022/12/22 06:55:53;;;;;;;74.22;32.05;;;;;;;2.31;100.00;99765.66;1649507;87;27181;-54
2022/12/22 06:58:20;;;;;;;76.22;33.92;;;;;;;2.33;100.00;99757.39;1649406;87;25833;-54
2022/12/22 07:00:50;;;;;;;76.40;33.95;;;;;;;2.33;100.00;99758.73;1649483;87;25377;-53
2022/12/22 07:03:17;;;;;;;76.77;34.55;;;;;;;2.33;100.00;99762.73;1649652;87;25773;-54
2022/12/22 07:05:44;;;;;;;68.60;33.45;;;;;;;2.33;100.00;99756.06;1649636;87;25484;-57
2022/12/22 07:08:11;;;;;;;73.17;33.90;;;;;;;2.32;100.00;99760.61;1649493;87;27742;-55
2022/12/22 07:10:57;;;;;;;72.50;32.70;;;;;;;2.34;100.00;99761.67;1651426;86;25521;-56
2022/12/22 07:13:30;;;;;;;78.17;34.43;;;;;;;2.33;100.00;99757.39;1652122;86;25464;-56
2022/12/22 07:16:00;;;;;;;68.67;30.55;;;;;;;2.34;100.00;99757.67;1651963;86;25775;-57
2022/12/22 07:18:35;;;;;;;73.57;33.60;;;;;;;2.32;100.00;99755.27;1652165;86;25332;-56
2022/12/22 07:21:07;;;;;;;62.93;31.17;;;;;;;2.34;100.00;99754.45;1652165;86;27319;-55
2022/12/22 07:23:37;;;;;;;67.62;32.78;;;;;;;2.32;100.00;99751.80;1651696;86;25898;-57
2022/12/22 07:26:08;;;;;;;66.30;31.05;;;;;;;2.34;100.00;99747.00;1652085;86;25348;-57
2022/12/22 07:28:39;;;;;;;67.97;31.85;;;;;;;2.35;100.00;99743.23;1651207;86;26273;-53
2022/12/22 07:31:10;;;;;;;72.30;33.45;;;;;;;2.35;100.00;99733.89;1652160;86;25561;-52
2022/12/22 07:33:38;;;;;;;71.50;33.00;;;;;;;2.34;100.00;99745.12;1652113;86;27810;-56
2022/12/22 07:36:13;;;;;;;74.45;32.10;;;;;;;2.35;100.00;99735.23;1652028;86;25634;-55
2022/12/22 07:38:45;;;;;;;73.22;34.08;;;;;;;2.35;100.00;99741.91;1652137;86;25346;-57
2022/12/22 07:46:56;;;;;;;68.85;31.12;;;;;;;2.35;100.00;99730.72;1797002;79;25820;-57
2022/12/22 07:52:08;;;;;;;65.78;32.40;;;;;;;2.35;100.00;99729.89;1797117;79;25382;-57
2022/12/22 07:54:36;;;;;;;72.85;33.02;;;;;;;2.35;100.00;99718.70;1797016;79;25809;-54
2022/12/22 07:57:03;;;;;;;76.53;34.65;;;;;;;2.36;100.00;99721.63;1767851;79;25491;-57
2022/12/22 07:59:32;;;;;;;76.67;34.23;;;;;;;2.37;100.00;99717.11;1797127;78;27201;-54
2022/12/22 08:01:59;;;;;;;55.00;26.20;;;;;;;2.39;100.00;99714.42;1753015;81;25653;-56
2022/12/22 08:04:26;;;;;;;67.58;32.55;;;;;;;2.41;100.00;99719.49;1753960;81;25524;-58
2022/12/22 08:06:53;;;;;;;75.62;37.17;;;;;;;2.42;100.00;99710.42;1754067;81;25604;-58
2022/12/22 08:09:21;;;;;;;68.78;34.10;;;;;;;2.43;100.00;99716.02;1754105;81;25551;-58
2022/12/22 08:11:50;;;;;;;75.32;34.60;;;;;;;2.45;100.00;99718.41;1754266;81;27200;-57
2022/12/22 08:14:19;;;;;;;67.25;33.70;;;;;;;2.47;100.00;99725.62;1754210;81;27189;-58
2022/12/22 08:16:46;;;;;;;72.00;34.53;;;;;;;2.47;100.00;99718.43;1754207;81;25393;-57
2022/12/22 08:19:15;;;;;;;71.95;33.58;;;;;;;2.47;100.00;99721.10;1754106;81;25606;-57
2022/12/22 08:21:42;;;;;;;66.80;32.53;;;;;;;2.50;100.00;99710.40;1754252;81;25486;-57
2022/12/22 08:24:11;;;;;;;65.80;32.05;;;;;;;2.53;100.00;99720.00;1755688;81;27351;-57
2022/12/22 08:26:44;;;;;;;67.55;33.33;;;;;;;2.65;100.00;99712.25;1816077;79;32817;-57
2022/12/22 08:29:17;;;;;;;68.55;33.80;;;;;;;2.83;100.00;99709.52;1815832;78;25427;-58
2022/12/22 08:31:48;;;;;;;75.50;35.00;;;;;;;2.94;100.00;99703.88;1815961;78;25629;-58
2022/12/22 08:34:18;;;;;;;77.65;35.73;;;;;;;3.08;100.00;99700.63;1815923;79;25454;-57
2022/12/22 08:36:50;;;;;;;73.33;35.03;;;;;;;3.15;100.00;99695.78;1815831;79;27230;-58
2022/12/22 08:39:21;;;;;;;70.40;34.10;;;;;;;3.13;100.00;99696.60;1812886;79;27299;-57
2022/12/22 08:41:52;;;;;;;72.70;33.78;;;;;;;3.23;100.00;99700.56;1815950;79;25355;-55
2022/12/22 08:44:27;;;;;;;73.47;34.13;;;;;;;3.57;100.00;99682.48;1815600;79;25593;-57
2022/12/22 08:47:00;;;;;;;75.47;36.35;;;;;;;3.96;100.00;99672.86;1806045;79;25712;-57
2022/12/22 08:49:27;;;;;;;73.70;34.78;;;;;;;4.34;100.00;99665.02;1804764;79;27152;-56
2022/12/22 08:51:56;;;;;;;80.40;35.75;;;;;;;4.62;100.00;99662.87;1804710;79;25569;-54
2022/12/22 08:54:27;;;;;;;86.12;39.42;;;;;;;5.10;100.00;99674.11;1803362;79;25481;-54
2022/12/22 08:56:57;;;;;;;83.00;38.70;;;;;;;5.18;100.00;99680.17;1804231;79;25641;-55
2022/12/22 08:59:28;;;;;;;71.60;34.98;;;;;;;5.01;100.00;99677.97;1775292;79;25627;-56
2022/12/22 09:02:03;;;;;;;76.90;36.45;;;;;;;4.83;100.00;99668.78;1804729;79;27179;-55
2022/12/22 09:04:35;;;;;;;61.58;32.93;;;;;;;4.71;100.00;99667.05;1803735;79;25432;-56
2022/12/22 09:07:08;;;;;;;64.42;32.60;;;;;;;4.53;100.00;99667.27;1804847;78;25479;-58
2022/12/22 09:09:38;;;;;;;61.80;32.48;;;;;;;4.37;100.00;99673.84;1804656;79;25620;-58
2022/12/22 09:12:11;;;;;;;59.77;32.20;;;;;;;4.24;100.00;99672.09;1772851;79;25348;-56
2022/12/22 09:14:41;;;;;;;70.25;33.23;;;;;;;4.18;100.00;99674.54;1804720;78;27237;-55
2022/12/22 09:17:09;;;;;;;61.18;32.58;;;;;;;4.18;100.00;99670.52;1804657;79;25346;-56
2022/12/22 09:19:36;;;;;;;62.67;32.15;;;;;;;4.07;100.00;99669.83;1804736;79;25516;-57
2022/12/22 09:22:04;;;;;;;59.40;30.80;;;;;;;4.04;100.00;99660.22;1804612;79;25665;-56
2022/12/22 09:24:31;;;;;;;59.80;30.60;;;;;;;3.97;100.00;99660.54;1804716;79;25415;-55
2022/12/22 09:27:02;;;;;;;62.62;31.20;;;;;;;3.94;100.00;99662.44;1804619;79;27148;-58
2022/12/22 09:29:29;;;;;;;64.72;33.20;;;;;;;3.95;100.00;99666.72;1804582;79;25436;-54
2022/12/22 09:31:57;;;;;;;61.98;32.48;;;;;;;3.97;100.00;99667.75;1804712;79;25448;-56
2022/12/22 09:34:32;;;;;;;61.33;31.30;;;;;;;3.91;100.00;99673.14;1804562;79;25946;-57
2022/12/22 09:37:05;;;;;;;58.25;30.15;;;;;;;3.80;100.00;99667.63;1804704;79;25404;-56
2022/12/22 09:39:34;;;;;;;59.15;31.85;;;;;;;3.71;100.00;99674.11;1802269;79;27278;-56
2022/12/22 09:42:02;;;;;;;61.53;29.52;;;;;;;3.63;100.00;99662.66;1804455;79;25661;-56
2022/12/22 09:44:39;;;;;;;59.13;30.88;;;;;;;3.60;100.00;99662.42;1804910;79;25516;-57
2022/12/22 09:47:29;;;;;;;54.75;29.20;;;;;;;3.59;100.00;99664.82;1820596;78;25666;-56
2022/12/22 09:50:00;;;;;;;55.20;29.02;;;;;;;3.59;100.00;99664.82;1821105;78;25296;-52
2022/12/22 09:52:39;;;;;;;57.65;30.55;;;;;;;3.58;100.00;99664.03;1824103;78;27231;-54
2022/12/22 09:55:29;;;;;;;59.47;29.47;;;;;;;3.73;100.00;99648.42;1820462;78;25542;-55
2022/12/22 09:57:56;;;;;;;56.65;29.70;;;;;;;3.80;100.00;99640.88;1823908;78;25282;-57
2022/12/22 10:00:27;;;;;;;60.25;30.75;;;;;;;3.86;100.00;99622.34;1824235;78;25661;-56
2022/12/22 10:03:06;;;;;;;61.28;30.90;;;;;;;3.90;100.00;99620.72;1824071;78;25374;-55
2022/12/22 10:05:55;;;;;;;59.63;32.00;;;;;;;3.97;100.00;99622.26;1822964;78;27144;-56
2022/12/22 10:08:31;;;;;;;59.65;31.62;;;;;;;4.24;100.00;99627.09;1822854;78;25471;-55
2022/12/22 10:10:58;;;;;;;58.83;30.68;;;;;;;4.40;100.00;99617.05;1824015;78;25455;-56
2022/12/22 10:13:26;;;;;;;62.53;30.45;;;;;;;4.44;100.00;99610.84;1824104;78;25690;-56
2022/12/22 10:15:54;;;;;;;60.25;30.30;;;;;;;4.49;100.00;99610.80;1824258;78;25276;-54
2022/12/22 10:18:25;;;;;;;59.65;32.05;;;;;;;4.57;100.00;99599.98;1824282;78;29449;-56
2022/12/22 10:21:13;;;;;;;60.03;31.60;;;;;;;4.73;100.00;99600.58;1824198;78;25490;-56
2022/12/22 10:23:45;;;;;;;60.85;31.57;;;;;;;4.85;100.00;99606.34;1824221;78;25500;-57
2022/12/22 10:26:29;;;;;;;55.10;30.12;;;;;;;4.84;100.00;99602.61;1823657;78;25623;-58
2022/12/22 10:29:12;;;;;;;55.20;30.32;;;;;;;4.77;100.00;99600.28;1769162;78;25526;-58
2022/12/22 10:32:02;;;;;;;51.05;29.65;;;;;;;4.74;100.00;99596.04;1796340;78;27544;-57
2022/12/22 10:34:30;;;;;;;55.23;30.27;;;;;;;4.76;100.00;99585.83;1796441;78;25398;-58
2022/12/22 10:37:04;;;;;;;52.95;29.95;;;;;;;4.72;100.00;99579.47;1796585;78;25518;-57
2022/12/22 10:39:34;;;;;;;53.78;29.00;;;;;;;4.67;99.83;99578.98;1824137;78;27752;-57
2022/12/22 10:42:12;;;;;;;55.28;29.50;;;;;;;4.56;99.22;99574.27;1823617;78;25477;-58
2022/12/22 10:44:47;;;;;;;55.75;29.35;;;;;;;4.47;99.32;99572.76;1823165;78;27186;-57
2022/12/22 10:47:22;;;;;;;49.08;29.57;;;;;;;4.36;98.88;99563.27;1806668;78;25466;-56
2022/12/22 10:49:54;;;;;;;55.00;28.17;;;;;;;4.29;99.31;99556.91;1801564;79;25303;-57
2022/12/22 10:52:26;;;;;;;53.25;29.25;;;;;;;4.26;99.57;99562.83;1801247;79;25634;-57
2022/12/22 10:55:22;;;;;;;55.85;29.18;;;;;;;4.17;99.40;99557.86;1801605;79;25520;-52
2022/12/22 10:57:51;;;;;;;59.75;29.60;;;;;;;4.11;99.59;99557.64;1801610;79;27779;-54
2022/12/22 11:00:28;;;;;;;59.83;30.97;;;;;;;4.03;99.67;99570.30;1801687;79;25488;-51
2022/12/22 11:02:59;;;;;;;51.58;30.05;;;;;;;3.97;99.81;99552.16;1801585;79;25372;-51
2022/12/22 11:05:28;;;;;;;56.48;29.40;;;;;;;3.95;100.00;99546.83;1801360;79;25999;-56
2022/12/22 11:08:04;;;;;;;54.83;28.40;;;;;;;3.91;100.00;99541.23;1801596;79;25444;-57
2022/12/22 11:10:57;;;;;;;52.25;30.08;;;;;;;3.89;100.00;99536.17;1801240;79;27907;-58
2022/12/22 11:13:58;;;;;;;51.15;28.60;;;;;;;3.88;100.00;99539.95;1745836;82;25640;-57
2022/12/22 11:16:53;;;;;;;62.25;31.50;;;;;;;3.86;100.00;99525.23;1744664;82;25872;-59
2022/12/22 11:19:44;;;;;;;58.38;31.15;;;;;;;3.88;100.00;99525.75;1745072;81;25679;-59
2022/12/22 11:22:29;;;;;;;57.10;30.57;;;;;;;3.86;100.00;99518.00;1746254;82;25374;-58
2022/12/22 11:25:32;;;;;;;60.23;31.77;;;;;;;3.85;100.00;99512.96;1746207;82;27212;-58
2022/12/22 11:28:05;;;;;;;58.48;31.65;;;;;;;3.86;100.00;99517.21;1746053;82;25490;-60
2022/12/22 11:30:49;;;;;;;59.67;31.85;;;;;;;3.85;100.00;99503.05;1746305;82;25516;-58
2022/12/22 11:33:43;;;;;;;66.75;34.08;;;;;;;3.88;100.00;99501.15;1680749;84;25621;-59
2022/12/22 11:36:21;;;;;;;62.73;34.00;;;;;;;3.88;100.00;99494.98;1680937;85;25399;-61
2022/12/22 11:39:14;;;;;;;71.17;36.05;;;;;;;3.96;100.00;99495.70;1680855;85;27445;-62
2022/12/22 11:42:14;;;;;;;69.70;36.85;;;;;;;4.06;100.00;99484.09;1680912;85;25781;-62
2022/12/22 11:47:15;;;;;;;77.92;38.50;;;;;;;4.37;100.00;99501.92;1868269;76;34645;-60
2022/12/22 11:50:11;;;;;;;81.25;40.80;;;;;;;4.36;100.00;99507.04;1756771;81;25602;-61
2022/12/22 11:53:16;;;;;;;78.10;39.30;;;;;;;4.41;100.00;99502.14;1770182;81;27514;-60
2022/12/22 11:56:06;;;;;;;73.00;39.05;;;;;;;4.57;100.00;99489.38;1756413;81;25493;-60
2022/12/22 11:59:01;;;;;;;65.62;37.05;;;;;;;4.71;100.00;99476.05;1770649;81;25617;-59
2022/12/22 12:01:51;;;;;;;71.05;37.20;;;;;;;4.76;100.00;99480.78;1727088;81;25559;-59
2022/12/22 12:05:01;;;;;;;72.32;38.98;;;;;;;4.86;100.00;99479.30;1770563;81;25559;-58
2022/12/22 12:07:30;;;;;;;;;;;;;;;4.86;100.00;99479.30;1759499;81;27549;-60
2022/12/22 12:10:23;;;;;;;72.22;36.35;;;;;;;4.80;99.37;99472.44;1770925;81;25401;-60
2022/12/22 12:13:11;;;;;;;67.27;35.25;;;;;;;4.76;99.20;99466.60;1756919;81;25507;-59
2022/12/22 12:15:51;;;;;;;75.12;38.42;;;;;;;4.74;99.54;99456.73;1770801;81;25401;-60
2022/12/22 12:18:55;;;;;;;68.80;38.65;;;;;;;4.86;100.00;99451.16;1755924;81;25614;-61
2022/12/22 12:21:32;;;;;;;67.87;34.63;;;;;;;4.90;100.00;99446.56;1770672;81;27612;-58
2022/12/22 12:24:28;;;;;;;68.52;36.90;;;;;;;4.99;99.68;99435.45;1744936;81;25474;-57
2022/12/22 12:27:35;;;;;;;65.97;37.17;;;;;;;5.07;99.37;99438.78;1776944;80;25562;-60
2022/12/22 12:30:15;;;;;;;66.45;33.78;;;;;;;5.34;100.00;99442.64;1775899;80;25542;-60
2022/12/22 12:32:50;;;;;;;69.85;37.65;;;;;;;5.43;100.00;99442.20;1756946;81;25495;-60
2022/12/22 12:35:31;;;;;;;62.80;34.00;;;;;;;5.67;100.00;99442.59;1776986;80;27488;-59
2022/12/22 12:38:18;;;;;;;68.75;37.88;;;;;;;5.86;100.00;99438.50;1680509;80;25867;-59
2022/12/22 12:40:56;;;;;;;64.75;34.33;;;;;;;5.90;98.75;99430.09;1745875;81;25549;-57
2022/12/22 12:43:23;;;;;;;60.12;34.03;;;;;;;5.83;97.55;99437.75;1776539;80;25630;-59
2022/12/22 12:45:49;;;;;;;61.37;33.40;;;;;;;5.74;96.23;99425.02;1776459;80;25818;-60
2022/12/22 12:48:28;;;;;;;61.28;34.40;;;;;;;5.70;96.48;99426.69;1776937;79;28145;-60
2022/12/22 12:50:58;;;;;;;64.23;33.97;;;;;;;5.75;97.29;99421.78;1777195;80;25642;-59
2022/12/22 12:53:29;;;;;;;63.17;33.90;;;;;;;5.81;97.29;99423.28;1746423;80;25500;-59
2022/12/22 12:56:00;;;;;;;63.25;34.43;;;;;;;5.85;97.04;99435.55;1776836;79;25630;-58
2022/12/22 12:58:42;;;;;;;55.58;31.45;;;;;;;5.86;96.32;99438.50;1776463;80;25655;-58
2022/12/22 13:01:29;;;;;;;56.00;31.10;;;;;;;5.74;95.34;99443.02;1776433;80;28020;-58
2022/12/22 13:03:56;;;;;;;55.55;31.10;;;;;;;5.58;94.80;99426.38;1755747;81;25595;-56
2022/12/22 13:06:48;;;;;;;60.60;32.05;;;;;;;5.49;95.10;99422.81;1776398;80;25541;-59
2022/12/22 13:09:27;;;;;;;60.92;30.43;;;;;;;5.49;95.40;99412.08;1776388;80;25896;-57
2022/12/22 13:11:55;;;;;;;52.70;29.18;;;;;;;5.35;94.83;99402.12;1756505;81;25387;-59
2022/12/22 13:14:57;;;;;;;55.05;29.92;;;;;;;5.25;94.73;99414.37;1770369;81;27368;-56
2022/12/22 13:17:48;;;;;;;53.75;29.45;;;;;;;5.12;94.55;99410.55;1756207;81;25526;-56
2022/12/22 13:20:20;;;;;;;69.40;41.83;;;;;;;4.95;94.54;99416.45;1770404;81;25512;-58
2022/12/22 13:22:53;;;;;;;64.80;37.45;;;;;;;4.80;94.94;99409.47;1755003;81;27381;-56
2022/12/22 13:25:23;;;;;;;48.58;26.97;;;;;;;4.72;95.28;99407.45;1770429;81;25206;-55
2022/12/22 13:27:51;;;;;;;46.35;24.47;;;;;;;4.63;95.62;99407.31;1756326;81;28037;-60
2022/12/22 13:30:20;;;;;;;46.83;24.75;;;;;;;4.58;96.17;99406.05;1776461;80;25391;-57
2022/12/22 13:32:49;;;;;;;43.45;23.22;;;;;;;4.56;96.13;99409.54;1745947;80;25412;-57
2022/12/22 13:35:36;;;;;;;40.70;23.90;;;;;;;4.45;96.21;99407.56;1776494;80;25244;-55
2022/12/22 13:38:04;;;;;;;39.50;21.50;;;;;;;4.40;96.24;99416.22;1756462;81;25394;-57
2022/12/22 13:40:41;;;;;;;41.88;22.98;;;;;;;4.33;96.44;99425.16;1776611;80;27515;-55
2022/12/22 13:43:16;;;;;;;45.50;21.55;;;;;;;4.27;96.66;99422.55;1772070;80;25688;-56
2022/12/22 13:45:50;;;;;;;41.53;22.62;;;;;;;4.18;96.90;99416.23;1781005;80;25302;-55
2022/12/22 13:48:35;;;;;;;44.55;24.05;;;;;;;4.14;97.12;99417.89;1761612;81;25631;-56
2022/12/22 13:51:08;;;;;;;43.30;23.55;;;;;;;4.09;97.27;99407.25;1793316;80;25455;-56
2022/12/22 13:53:42;;;;;;;43.98;24.18;;;;;;;4.04;97.43;99400.08;1761962;81;28220;-55
2022/12/22 13:56:23;;;;;;;45.05;24.27;;;;;;;4.00;97.51;99401.75;1793263;80;26133;-57
2022/12/22 13:58:56;;;;;;;52.98;26.85;;;;;;;3.96;97.54;99396.70;1761883;81;25543;-54
2022/12/22 14:01:26;;;;;;;52.15;27.50;;;;;;;3.96;97.82;99399.37;1773344;80;26214;-58
2022/12/22 14:04:06;;;;;;;54.35;27.40;;;;;;;3.95;97.88;99398.31;1762092;81;25491;-57
2022/12/22 14:06:39;;;;;;;48.45;27.20;;;;;;;3.92;98.03;99399.16;1773079;80;27557;-55
2022/12/22 14:09:20;;;;;;;46.02;26.52;;;;;;;3.88;97.98;99398.66;1761787;81;25562;-57
2022/12/22 14:12:10;;;;;;;54.53;27.65;;;;;;;3.85;98.11;99382.66;1771672;80;25613;-58
2022/12/22 14:14:41;;;;;;;50.50;27.93;;;;;;;3.82;98.24;99385.11;1761873;81;25581;-57
2022/12/22 14:17:22;;;;;;;58.98;29.45;;;;;;;3.80;98.50;99383.23;1793263;80;25578;-58
2022/12/22 14:19:56;;;;;;;55.38;26.65;;;;;;;3.77;98.68;99385.17;1761879;81;28213;-56
2022/12/22 14:22:28;;;;;;;53.92;28.00;;;;;;;3.76;98.98;99383.56;1793207;80;26064;-56
2022/12/22 14:25:03;;;;;;;57.23;28.60;;;;;;;3.71;98.96;99386.57;1760972;81;25623;-53
2022/12/22 14:27:40;;;;;;;47.03;27.07;;;;;;;3.71;98.99;99390.58;1773680;80;25381;-53
2022/12/22 14:30:30;;;;;;;56.33;28.75;;;;;;;3.69;99.15;99375.89;1761152;81;25464;-56
2022/12/22 14:33:14;;;;;;;56.70;28.47;;;;;;;3.67;99.52;99361.45;1683620;85;27529;-55
2022/12/22 14:35:41;;;;;;;61.40;29.15;;;;;;;3.64;99.82;99360.69;1683674;85;25845;-56
2022/12/22 14:38:25;;;;;;;56.42;29.05;;;;;;;3.64;99.76;99353.21;1683398;85;25495;-58
2022/12/22 14:40:54;;;;;;;55.38;29.55;;;;;;;3.61;99.74;99349.25;1682072;85;25842;-56
2022/12/22 14:43:26;;;;;;;56.85;30.37;;;;;;;3.58;99.71;99348.47;1682131;85;25713;-56
2022/12/22 14:46:04;;;;;;;51.02;27.55;;;;;;;3.56;99.81;99343.95;1680713;85;27521;-58
2022/12/22 14:48:35;;;;;;;53.42;28.55;;;;;;;3.53;99.94;99335.16;1735343;82;25766;-57
2022/12/22 14:51:02;;;;;;;55.95;28.60;;;;;;;3.52;100.00;99337.05;1735225;82;25767;-57
2022/12/22 14:53:58;;;;;;;65.85;34.35;;;;;;;3.51;100.00;99332.77;1735410;82;25749;-53
2022/12/22 14:56:27;;;;;;;58.33;31.68;;;;;;;3.53;100.00;99331.94;1736841;82;25526;-58
2022/12/22 14:59:14;;;;;;;63.65;35.33;;;;;;;3.54;100.00;99320.69;1736926;82;28649;-57
2022/12/22 15:01:46;;;;;;;53.30;28.80;;;;;;;3.55;100.00;99327.09;1734166;82;25643;-56
2022/12/22 15:04:19;;;;;;;53.20;29.20;;;;;;;3.56;100.00;99331.92;1705998;84;25774;-56
2022/12/22 15:06:48;;;;;;;51.53;29.10;;;;;;;3.53;100.00;99319.12;1707440;84;25519;-58
2022/12/22 15:09:20;;;;;;;56.90;29.65;;;;;;;3.51;100.00;99323.96;1719578;80;25624;-58
2022/12/22 15:11:52;;;;;;;53.63;28.17;;;;;;;3.49;100.00;99316.74;1791436;79;27496;-56
2022/12/22 15:14:23;;;;;;;51.18;28.02;;;;;;;3.47;100.00;99326.38;1791249;80;25574;-56
2022/12/22 15:16:57;;;;;;;55.25;29.07;;;;;;;3.46;100.00;99325.36;1791347;79;25612;-58
2022/12/22 15:19:27;;;;;;;54.90;29.27;;;;;;;3.44;100.00;99323.48;1791263;80;25523;-58
2022/12/22 15:21:54;;;;;;;54.65;29.07;;;;;;;3.44;100.00;99321.63;1791329;80;25433;-57
2022/12/22 15:24:22;;;;;;;58.17;30.82;;;;;;;3.43;100.00;99318.69;1791234;80;27506;-58
2022/12/22 15:26:48;;;;;;;55.67;29.57;;;;;;;3.44;100.00;99321.63;1791123;80;25521;-56
2022/12/22 15:29:14;;;;;;;56.90;29.35;;;;;;;3.43;100.00;99328.05;1791279;79;25361;-56
2022/12/22 15:31:42;;;;;;;58.63;31.00;;;;;;;3.44;100.00;99333.66;1790917;80;25613;-56
2022/12/22 15:34:20;;;;;;;58.35;29.67;;;;;;;3.44;100.00;99324.82;1791288;80;25554;-55
2022/12/22 15:36:46;;;;;;;55.85;29.67;;;;;;;3.44;100.00;99322.15;1791116;79;27471;-57